EIKY/KIR METAR and TAF weather

Enter ICAO airport designator
Station Type Date Time Source
EIKY METAR 2019/02/22 20:00 UTC NOAA

EIKY 222000Z 11010KT 090V150 9999 SCT034 BKN037 13/08 Q1021


Station Type Date Time Source
EIKY Decoded METAR 2019/02/22 20:00 UTC NOAA

Station name not available
Feb 22, 2019 - 03:00 PM EST / 2019.02.22 2000 UTC
Wind: from the ESE (110 degrees) at 12 MPH (10 KT) (direction variable):0
Visibility: greater than 7 mile(s):0
Sky conditions: mostly cloudy
Temperature: 55 F (13 C)
Dew Point: 46 F (8 C)
Relative Humidity: 71%
Pressure (altimeter): 30.15 in. Hg (1021 hPa)
ob: EIKY 222000Z 11010KT 090V150 9999 SCT034 BKN037 13/08 Q1021
cycle: 20

Station Type Date Time Source
EIKY TAF UTC NOAA

Error!


Example: see airport list